Time;durP1;ratioP1;P1;durP2;ratioP2;P2;SDS_P1;SDS_P2;PMS_P1;PMS_P2;Temp;Humidity;BMP_temperature;BMP_pressure;BME280_temperature;BME280_humidity;BME280_pressure;Samples;Min_cycle;Max_cycle;Signal;HPM_P1;HPM_P2
2023/05/15 00:00:44;;;;;;;;;;;;;;;18.73;63.23;98181.22;2073502;28;19924;-47
2023/05/15 00:01:44;;;;;;;;;;;;;;;18.73;62.96;98185.75;2076456;28;19954;-50
2023/05/15 00:02:46;;;;;;;;;;;;;;;18.73;63.24;98185.75;2078209;28;19955;-50
2023/05/15 00:03:47;;;;;;;;;;;;;;;18.73;63.08;98191.13;2076093;28;19932;-48
2023/05/15 00:04:48;;;;;;;;;;;;;;;18.73;63.20;98188.44;2077750;28;19924;-48
2023/05/15 00:05:49;;;;;;;;;;;;;;;18.71;63.13;98185.16;2074002;28;19967;-47
2023/05/15 00:06:50;;;;;;;;;;;;;;;18.72;63.14;98192.16;2075071;28;19925;-51
2023/05/15 00:07:52;;;;;;;;;;;;;;;18.72;63.06;98186.78;2077804;28;20264;-46
2023/05/15 00:08:53;;;;;;;;;;;;;;;18.71;63.25;98179.78;2076799;28;19924;-47
2023/05/15 00:09:54;;;;;;;;;;;;;;;18.72;62.98;98184.94;2076196;28;19928;-50
2023/05/15 00:10:55;;;;;;;;;;;;;;;18.71;62.99;98185.97;2074961;28;19921;-47
2023/05/15 00:11:56;;;;;;;;;;;;;;;18.72;63.00;98187.63;2077083;28;19973;-46
2023/05/15 00:12:57;;;;;;;;;;;;;;;18.72;63.04;98184.09;2078015;28;19951;-47
2023/05/15 00:13:58;;;;;;;;;;;;;;;18.72;63.06;98187.63;2079758;28;19982;-44
2023/05/15 00:14:59;;;;;;;;;;;;;;;18.70;63.22;98187.00;2074581;28;21026;-44
2023/05/15 00:16:00;;;;;;;;;;;;;;;18.71;63.34;98183.28;2076962;28;20308;-46
2023/05/15 00:17:01;;;;;;;;;;;;;;;18.72;62.99;98186.78;2076144;28;19967;-46
2023/05/15 00:18:02;;;;;;;;;;;;;;;18.72;63.11;98189.47;2076861;28;19927;-47
2023/05/15 00:19:03;;;;;;;;;;;;;;;18.71;62.82;98185.16;2077541;28;19925;-48
2023/05/15 00:20:05;;;;;;;;;;;;;;;18.71;63.24;98182.47;2075433;28;19926;-49
2023/05/15 00:21:07;;;;;;;;;;;;;;;18.70;63.00;98186.19;2076418;28;19925;-47
2023/05/15 00:22:07;;;;;;;;;;;;;;;18.70;63.07;98188.88;2075951;28;19964;-44
2023/05/15 00:23:10;;;;;;;;;;;;;;;18.70;63.26;98180.81;2075079;28;19932;-48
2023/05/15 00:24:10;;;;;;;;;;;;;;;18.70;63.05;98188.88;2077955;28;19925;-45
2023/05/15 00:25:12;;;;;;;;;;;;;;;18.70;63.15;98180.81;2077266;28;19932;-46
2023/05/15 00:26:14;;;;;;;;;;;;;;;18.68;63.02;98172.16;2075755;28;20016;-46
2023/05/15 00:27:16;;;;;;;;;;;;;;;18.69;63.26;98179.16;2075256;28;19924;-45
2023/05/15 00:28:16;;;;;;;;;;;;;;;18.69;63.33;98176.47;2077235;28;19971;-44
2023/05/15 00:29:18;;;;;;;;;;;;;;;18.67;63.10;98174.03;2077184;28;19932;-45
2023/05/15 00:30:18;;;;;;;;;;;;;;;18.66;63.52;98183.09;2077824;28;20325;-44
2023/05/15 00:31:20;;;;;;;;;;;;;;;18.67;63.46;98174.03;2075233;28;19928;-47
2023/05/15 00:32:20;;;;;;;;;;;;;;;18.68;63.18;98177.53;2076408;28;20059;-47
2023/05/15 00:33:21;;;;;;;;;;;;;;;18.68;62.97;98175.66;2076994;28;20379;-48
2023/05/15 00:34:22;;;;;;;;;;;;;;;18.67;63.28;98175.88;2075916;28;21640;-45
2023/05/15 00:35:23;;;;;;;;;;;;;;;18.67;63.24;98175.88;2076021;28;19978;-49
2023/05/15 00:36:24;;;;;;;;;;;;;;;18.67;63.02;98174.03;2076998;28;19925;-48
2023/05/15 00:37:26;;;;;;;;;;;;;;;18.66;63.12;98176.91;2076503;28;19925;-47
2023/05/15 00:38:28;;;;;;;;;;;;;;;18.67;63.32;98170.50;2078385;28;19999;-45
2023/05/15 00:39:29;;;;;;;;;;;;;;;18.67;63.20;98167.81;2076456;28;19987;-45
2023/05/15 00:40:30;;;;;;;;;;;;;;;18.67;63.04;98173.19;2075750;28;19929;-49
2023/05/15 00:41:33;;;;;;;;;;;;;;;18.68;63.02;98164.09;2076461;28;20523;-50
2023/05/15 00:42:34;;;;;;;;;;;;;;;18.67;63.04;98167.81;2076322;28;19921;-49
2023/05/15 00:43:36;;;;;;;;;;;;;;;18.67;63.32;98165.13;2076554;28;19988;-49
2023/05/15 00:44:37;;;;;;;;;;;;;;;18.67;63.11;98162.47;2077087;28;19920;-44
2023/05/15 00:45:40;;;;;;;;;;;;;;;18.67;63.02;98163.28;2074560;28;19939;-45
2023/05/15 00:46:40;;;;;;;;;;;;;;;18.67;63.06;98163.28;2078637;28;19927;-48
2023/05/15 00:47:42;;;;;;;;;;;;;;;18.67;63.03;98159.78;2074406;28;19925;-46
2023/05/15 00:48:43;;;;;;;;;;;;;;;18.67;63.24;98157.91;2074827;28;19921;-49
2023/05/15 00:49:45;;;;;;;;;;;;;;;18.68;62.89;98156.03;2077959;28;20006;-48
2023/05/15 00:50:46;;;;;;;;;;;;;;;18.66;62.92;98153.53;2076459;28;19932;-47
2023/05/15 00:51:47;;;;;;;;;;;;;;;18.66;63.09;98155.41;2077476;28;19924;-47
2023/05/15 00:52:47;;;;;;;;;;;;;;;18.65;63.30;98154.59;2077918;28;19929;-47
2023/05/15 00:53:51;;;;;;;;;;;;;;;18.66;63.38;98147.34;2077866;28;20484;-47
2023/05/15 00:54:52;;;;;;;;;;;;;;;18.66;63.02;98147.34;2076454;28;19928;-46
2023/05/15 00:55:54;;;;;;;;;;;;;;;18.64;63.06;98144.09;2077484;28;20024;-47
2023/05/15 00:56:55;;;;;;;;;;;;;;;18.64;63.19;98141.41;2076162;28;19925;-47
2023/05/15 00:57:57;;;;;;;;;;;;;;;18.65;63.21;98143.03;2078358;28;19924;-49
2023/05/15 00:58:58;;;;;;;;;;;;;;;18.66;63.10;98144.66;2075084;28;20150;-48
2023/05/15 01:00:00;;;;;;;;;;;;;;;18.66;63.17;98144.66;2077833;28;20461;-50
2023/05/15 01:01:01;;;;;;;;;;;;;;;18.66;63.01;98140.13;2076583;28;19924;-47
2023/05/15 01:02:03;;;;;;;;;;;;;;;18.66;62.99;98139.31;2076157;28;19928;-48
2023/05/15 01:03:04;;;;;;;;;;;;;;;18.65;63.10;98140.34;2077326;28;19925;-45
2023/05/15 01:04:05;;;;;;;;;;;;;;;18.64;62.99;98138.72;2076103;28;19983;-46
2023/05/15 01:05:07;;;;;;;;;;;;;;;18.64;63.25;98136.03;2077970;28;19928;-49
2023/05/15 01:06:09;;;;;;;;;;;;;;;18.63;63.11;98132.50;2076586;28;19928;-45
2023/05/15 01:07:09;;;;;;;;;;;;;;;18.64;63.33;98136.03;2075580;28;19929;-44
2023/05/15 01:08:16;;;;;;;;;;;;;;;18.64;62.87;98131.47;2075257;28;19927;-44
2023/05/15 01:09:18;;;;;;;;;;;;;;;18.63;63.02;98137.06;2074860;28;19936;-50
2023/05/15 01:10:21;;;;;;;;;;;;;;;18.64;63.27;98130.66;2077517;28;19989;-46
2023/05/15 01:11:23;;;;;;;;;;;;;;;18.64;63.20;98133.34;2076573;28;19947;-46
2023/05/15 01:12:26;;;;;;;;;;;;;;;18.63;62.88;98131.69;2076562;28;19924;-47
2023/05/15 01:13:26;;;;;;;;;;;;;;;18.63;63.21;98129.81;2074423;28;20382;-44
2023/05/15 01:14:28;;;;;;;;;;;;;;;18.63;63.00;98129.00;2076026;28;19924;-48
2023/05/15 01:15:28;;;;;;;;;;;;;;;18.64;62.90;98127.97;2075507;28;19928;-45
2023/05/15 01:16:30;;;;;;;;;;;;;;;18.64;63.19;98125.28;2076511;28;20338;-48
2023/05/15 01:17:30;;;;;;;;;;;;;;;18.64;63.19;98125.28;2069806;28;19978;-45
2023/05/15 01:18:32;;;;;;;;;;;;;;;18.63;62.99;98113.69;2071788;28;19982;-46
2023/05/15 01:19:34;;;;;;;;;;;;;;;18.63;62.99;98112.88;2073209;28;21238;-46
2023/05/15 01:20:44;;;;;;;;;;;;;;;18.62;62.96;98117.44;2077536;28;19932;-47
2023/05/15 01:22:02;;;;;;;;;;;;;;;18.64;62.97;98117.22;2075642;28;19928;-48
2023/05/15 01:23:10;;;;;;;;;;;;;;;18.62;63.25;98116.59;2075515;28;19925;-50
2023/05/15 01:24:18;;;;;;;;;;;;;;;18.61;63.27;98121.16;2077665;28;19925;-44
2023/05/15 01:25:37;;;;;;;;;;;;;;;18.62;62.97;98121.97;2075876;28;20798;-44
2023/05/15 01:26:53;;;;;;;;;;;;;;;18.64;63.13;98125.28;2074953;28;19990;-46
2023/05/15 01:27:57;;;;;;;;;;;;;;;18.63;63.18;98119.06;2073011;28;19941;-44
2023/05/15 01:29:01;;;;;;;;;;;;;;;18.62;63.03;98119.28;2075553;28;21242;-48
2023/05/15 01:30:06;;;;;;;;;;;;;;;18.62;63.10;98113.94;2076049;28;19991;-47
2023/05/15 01:31:10;;;;;;;;;;;;;;;18.62;63.23;98117.44;2076649;28;19935;-47
2023/05/15 01:32:16;;;;;;;;;;;;;;;18.62;62.91;98111.25;2076603;28;19975;-48
2023/05/15 01:33:20;;;;;;;;;;;;;;;18.61;63.31;98109.56;2074421;28;20022;-47
2023/05/15 01:34:22;;;;;;;;;;;;;;;18.61;63.27;98109.56;2076453;28;19928;-45
2023/05/15 01:35:28;;;;;;;;;;;;;;;18.61;63.17;98112.25;2077435;28;20832;-47
2023/05/15 01:36:32;;;;;;;;;;;;;;;18.61;63.13;98118.47;2078567;28;19924;-44
2023/05/15 01:37:36;;;;;;;;;;;;;;;18.60;62.96;98114.13;2075542;28;19975;-48
2023/05/15 01:38:38;;;;;;;;;;;;;;;18.60;63.29;98105.25;2078244;28;19982;-44
2023/05/15 01:39:42;;;;;;;;;;;;;;;18.60;63.21;98108.75;2075867;28;20573;-51
2023/05/15 01:40:43;;;;;;;;;;;;;;;18.60;63.20;98107.94;2077347;28;19920;-47
2023/05/15 01:41:46;;;;;;;;;;;;;;;18.60;62.89;98102.56;2077199;28;19990;-49
2023/05/15 01:42:50;;;;;;;;;;;;;;;18.59;63.24;98109.00;2075444;28;19990;-48
2023/05/15 01:43:56;;;;;;;;;;;;;;;18.59;63.35;98106.31;2076208;28;19962;-49
2023/05/15 01:45:00;;;;;;;;;;;;;;;18.60;63.02;98102.56;2076627;28;19982;-48
2023/05/15 01:46:03;;;;;;;;;;;;;;;18.59;63.20;98111.69;2077442;28;20016;-47
2023/05/15 01:47:05;;;;;;;;;;;;;;;18.59;63.27;98109.81;2076427;28;19933;-50
2023/05/15 01:48:08;;;;;;;;;;;;;;;18.58;62.88;98105.44;2077377;28;19931;-47
2023/05/15 01:49:10;;;;;;;;;;;;;;;18.59;62.96;98109.81;2075999;28;19925;-50
2023/05/15 01:50:13;;;;;;;;;;;;;;;18.58;63.00;98104.63;2076134;28;19925;-50
2023/05/15 01:51:13;;;;;;;;;;;;;;;18.58;63.29;98105.44;2076126;28;19925;-48
2023/05/15 01:52:18;;;;;;;;;;;;;;;18.57;63.18;98106.50;2074553;28;19982;-50
2023/05/15 01:53:19;;;;;;;;;;;;;;;18.57;63.25;98111.88;2074900;28;19933;-48
2023/05/15 01:54:22;;;;;;;;;;;;;;;18.57;62.97;98105.69;2073706;28;20516;-49
2023/05/15 01:55:24;;;;;;;;;;;;;;;18.57;63.20;98109.19;2075344;28;20017;-48
2023/05/15 01:56:26;;;;;;;;;;;;;;;18.58;63.18;98101.94;2073034;28;20508;-45
2023/05/15 01:57:27;;;;;;;;;;;;;;;18.56;63.24;98099.50;2074411;28;19921;-46
2023/05/15 01:58:29;;;;;;;;;;;;;;;18.58;63.24;98105.44;2073469;28;19932;-52
2023/05/15 01:59:32;;;;;;;;;;;;;;;18.58;62.83;98099.25;2073631;28;19921;-48
2023/05/15 02:00:34;;;;;;;;;;;;;;;18.58;63.07;98104.63;2073969;28;19924;-50
2023/05/15 02:01:36;;;;;;;;;;;;;;;18.59;62.88;98106.31;2074596;28;20026;-45
2023/05/15 02:02:37;;;;;;;;;;;;;;;18.56;63.07;98104.88;2074514;28;20076;-45
2023/05/15 02:03:39;;;;;;;;;;;;;;;18.57;63.05;98103.00;2074900;28;20629;-46
2023/05/15 02:04:40;;;;;;;;;;;;;;;18.57;62.95;98103.00;2075617;28;19936;-47
2023/05/15 02:05:42;;;;;;;;;;;;;;;18.58;62.98;98100.09;2075640;28;19987;-46
2023/05/15 02:06:42;;;;;;;;;;;;;;;18.57;63.19;98106.50;2073705;28;19921;-47
2023/05/15 02:07:45;;;;;;;;;;;;;;;18.57;62.96;98105.69;2075754;28;19925;-46
2023/05/15 02:08:46;;;;;;;;;;;;;;;18.56;63.21;98096.00;2074410;28;19973;-47
2023/05/15 02:09:48;;;;;;;;;;;;;;;18.56;62.84;98106.75;2074097;28;19971;-46
2023/05/15 02:10:48;;;;;;;;;;;;;;;18.56;63.20;98104.06;2072115;28;19932;-46
2023/05/15 02:11:50;;;;;;;;;;;;;;;18.56;63.24;98096.81;2074678;28;19943;-45
2023/05/15 02:12:51;;;;;;;;;;;;;;;18.57;63.25;98100.31;2074809;28;19975;-46
2023/05/15 02:13:54;;;;;;;;;;;;;;;18.53;62.99;98098.06;2074840;28;20010;-45
2023/05/15 02:14:58;;;;;;;;;;;;;;;18.56;63.03;98104.06;2075080;28;19921;-45
2023/05/15 02:15:59;;;;;;;;;;;;;;;18.54;62.92;98094.31;2077101;28;19924;-46
2023/05/15 02:17:00;;;;;;;;;;;;;;;18.54;63.08;98099.69;2075173;28;19925;-45
2023/05/15 02:18:01;;;;;;;;;;;;;;;18.56;62.95;98096.81;2073472;28;19928;-47
2023/05/15 02:19:02;;;;;;;;;;;;;;;18.56;62.78;98098.69;2074453;28;20121;-45
2023/05/15 02:20:05;;;;;;;;;;;;;;;18.55;63.21;98097.84;2073994;28;19972;-46
2023/05/15 02:21:05;;;;;;;;;;;;;;;18.53;62.96;98095.38;2072790;28;19925;-47
2023/05/15 02:22:07;;;;;;;;;;;;;;;18.53;63.07;98103.44;2074678;28;19936;-46
2023/05/15 02:23:07;;;;;;;;;;;;;;;18.56;63.14;98101.38;2073685;28;19925;-46
2023/05/15 02:24:09;;;;;;;;;;;;;;;18.54;63.09;98098.88;2076079;28;19925;-44
2023/05/15 02:25:09;;;;;;;;;;;;;;;18.54;62.80;98094.31;2074383;28;19929;-46
2023/05/15 02:26:20;;;;;;;;;;;;;;;18.53;63.16;98095.38;2071378;28;19936;-46
2023/05/15 02:27:23;;;;;;;;;;;;;;;18.54;63.30;98104.25;2075883;28;19978;-45
2023/05/15 02:28:30;;;;;;;;;;;;;;;18.54;63.09;98105.06;2073268;28;19994;-45
2023/05/15 02:29:33;;;;;;;;;;;;;;;18.54;63.18;98094.31;2075481;28;19966;-45
2023/05/15 02:30:41;;;;;;;;;;;;;;;18.54;62.94;98097.00;2075256;28;20474;-45
2023/05/15 02:31:46;;;;;;;;;;;;;;;18.52;63.07;98096.41;2075776;28;20452;-46
2023/05/15 02:32:52;;;;;;;;;;;;;;;18.53;63.00;98092.69;2075023;28;19924;-46
2023/05/15 02:33:56;;;;;;;;;;;;;;;18.52;63.24;98088.34;2075129;28;19925;-46
2023/05/15 02:35:03;;;;;;;;;;;;;;;18.53;63.15;98094.56;2074481;28;19924;-46
2023/05/15 02:36:05;;;;;;;;;;;;;;;18.51;63.18;98088.56;2072639;28;20378;-48
2023/05/15 02:37:10;;;;;;;;;;;;;;;18.53;62.76;98086.50;2075450;28;19928;-46
2023/05/15 02:38:14;;;;;;;;;;;;;;;18.53;63.15;98089.19;2075549;28;20401;-49
2023/05/15 02:39:16;;;;;;;;;;;;;;;18.51;62.98;98086.72;2074155;28;19929;-47
2023/05/15 02:40:18;;;;;;;;;;;;;;;18.52;63.01;98084.84;2074086;28;19936;-46
2023/05/15 02:41:20;;;;;;;;;;;;;;;18.50;63.20;98087.75;2075315;28;19932;-46
2023/05/15 02:42:21;;;;;;;;;;;;;;;18.51;63.22;98085.88;2072690;28;20322;-46
2023/05/15 02:43:23;;;;;;;;;;;;;;;18.50;63.27;98082.38;2075671;28;20016;-46
2023/05/15 02:44:23;;;;;;;;;;;;;;;18.51;63.26;98083.19;2073150;28;19928;-48
2023/05/15 02:45:25;;;;;;;;;;;;;;;18.50;63.18;98093.13;2074968;28;19929;-45
2023/05/15 02:46:28;;;;;;;;;;;;;;;18.50;63.16;98093.13;2074397;28;19978;-49
2023/05/15 02:47:30;;;;;;;;;;;;;;;18.50;62.96;98087.75;2075862;28;20333;-46
2023/05/15 02:48:30;;;;;;;;;;;;;;;18.49;63.00;98086.09;2074621;28;20318;-46
2023/05/15 02:49:32;;;;;;;;;;;;;;;18.49;63.00;98096.84;2075595;28;19925;-47
2023/05/15 02:50:32;;;;;;;;;;;;;;;18.49;63.07;98086.09;2076714;28;20589;-47
2023/05/15 02:51:34;;;;;;;;;;;;;;;18.48;62.95;98089.81;2076689;28;19928;-47
2023/05/15 02:52:35;;;;;;;;;;;;;;;18.48;63.10;98089.00;2075022;28;19929;-45
2023/05/15 02:53:39;;;;;;;;;;;;;;;18.49;63.05;98093.34;2075996;28;21035;-46
2023/05/15 02:54:40;;;;;;;;;;;;;;;18.50;63.10;98092.31;2075457;28;20854;-45
2023/05/15 02:55:41;;;;;;;;;;;;;;;18.50;63.22;98093.13;2075669;28;19995;-47
2023/05/15 02:56:41;;;;;;;;;;;;;;;18.50;62.96;98089.63;2076508;28;21879;-45
2023/05/15 02:57:43;;;;;;;;;;;;;;;18.48;63.37;98083.63;2075498;28;19995;-47
2023/05/15 02:58:43;;;;;;;;;;;;;;;18.46;63.19;98080.34;2074401;28;20938;-46
2023/05/15 02:59:45;;;;;;;;;;;;;;;18.48;63.14;98084.47;2076430;28;19925;-48
2023/05/15 03:00:45;;;;;;;;;;;;;;;18.48;63.11;98081.78;2076320;28;19940;-46
2023/05/15 03:01:48;;;;;;;;;;;;;;;18.49;63.00;98085.28;2075235;28;19925;-46
2023/05/15 03:02:49;;;;;;;;;;;;;;;18.48;63.06;98079.09;2075327;28;19921;-47
2023/05/15 03:03:50;;;;;;;;;;;;;;;18.49;63.19;98080.72;2074269;28;20006;-52
2023/05/15 03:04:51;;;;;;;;;;;;;;;18.47;63.21;98072.06;2077190;28;19933;-47
2023/05/15 03:05:52;;;;;;;;;;;;;;;18.48;63.18;98073.72;2077409;28;19920;-49
2023/05/15 03:06:53;;;;;;;;;;;;;;;18.47;63.25;98066.72;2076902;28;19924;-47
2023/05/15 03:07:54;;;;;;;;;;;;;;;18.47;63.05;98076.59;2077316;28;19967;-44
2023/05/15 03:08:54;;;;;;;;;;;;;;;18.47;63.19;98063.19;2076887;28;19921;-47
2023/05/15 03:09:56;;;;;;;;;;;;;;;18.47;63.02;98066.72;2077884;28;20481;-44
2023/05/15 03:10:56;;;;;;;;;;;;;;;18.47;63.02;98065.88;2078887;28;19925;-51
2023/05/15 03:11:58;;;;;;;;;;;;;;;18.47;63.20;98061.34;2076398;28;19975;-46
2023/05/15 03:12:58;;;;;;;;;;;;;;;18.46;63.20;98054.31;2076344;28;20003;-50
2023/05/15 03:14:00;;;;;;;;;;;;;;;18.46;63.21;98062.34;2077873;28;19936;-45
2023/05/15 03:15:00;;;;;;;;;;;;;;;18.47;63.24;98053.28;2077584;28;20264;-47
2023/05/15 03:16:02;;;;;;;;;;;;;;;18.46;63.12;98048.13;2078508;28;19983;-46
2023/05/15 03:17:04;;;;;;;;;;;;;;;18.47;62.88;98055.97;2078616;28;20002;-47
2023/05/15 03:18:05;;;;;;;;;;;;;;;18.48;62.95;98068.34;2077297;28;19932;-46
2023/05/15 03:19:06;;;;;;;;;;;;;;;18.45;63.22;98059.91;2078404;28;19951;-47
2023/05/15 03:20:08;;;;;;;;;;;;;;;18.46;62.90;98062.34;2076106;28;19964;-48
2023/05/15 03:21:10;;;;;;;;;;;;;;;18.46;63.16;98059.69;2079067;28;19929;-44
2023/05/15 03:22:10;;;;;;;;;;;;;;;18.46;63.04;98054.31;2076759;28;19925;-46
2023/05/15 03:23:12;;;;;;;;;;;;;;;18.47;63.08;98047.06;2076346;28;19929;-48
2023/05/15 03:24:12;;;;;;;;;;;;;;;18.47;63.01;98050.59;2076934;28;20011;-45
2023/05/15 03:25:13;;;;;;;;;;;;;;;18.47;63.11;98044.38;2077427;28;20002;-45
2023/05/15 03:26:14;;;;;;;;;;;;;;;18.46;62.92;98048.94;2076050;28;19929;-48
2023/05/15 03:27:15;;;;;;;;;;;;;;;18.47;62.88;98045.22;2077594;28;19932;-48
2023/05/15 03:28:16;;;;;;;;;;;;;;;18.47;63.10;98047.91;2077408;28;19933;-47
2023/05/15 03:29:17;;;;;;;;;;;;;;;18.46;63.30;98048.13;2077376;28;19929;-48
2023/05/15 03:30:18;;;;;;;;;;;;;;;18.46;63.14;98048.13;2076280;28;20358;-47
2023/05/15 03:31:19;;;;;;;;;;;;;;;18.46;63.18;98048.94;2077328;28;19935;-49
2023/05/15 03:32:21;;;;;;;;;;;;;;;18.48;63.04;98046.88;2078644;28;19975;-47
2023/05/15 03:33:22;;;;;;;;;;;;;;;18.46;63.00;98046.25;2077113;28;19993;-49
2023/05/15 03:34:23;;;;;;;;;;;;;;;18.43;63.26;98041.31;2078909;28;19929;-48
2023/05/15 03:35:25;;;;;;;;;;;;;;;18.44;63.15;98040.28;2077681;28;20006;-46
2023/05/15 03:36:27;;;;;;;;;;;;;;;18.43;63.17;98044.00;2076325;28;19931;-46
2023/05/15 03:37:27;;;;;;;;;;;;;;;18.44;63.26;98037.59;2079173;28;20576;-48
2023/05/15 03:38:29;;;;;;;;;;;;;;;18.43;63.00;98041.31;2077687;28;19924;-47
2023/05/15 03:39:29;;;;;;;;;;;;;;;18.44;62.93;98042.13;2075692;28;19929;-48
2023/05/15 03:40:31;;;;;;;;;;;;;;;18.44;63.13;98034.94;2078708;28;19928;-48
2023/05/15 03:41:31;;;;;;;;;;;;;;;18.44;62.91;98040.28;2078216;28;20960;-46
2023/05/15 03:42:33;;;;;;;;;;;;;;;18.43;62.90;98043.19;2076800;28;19929;-50
2023/05/15 03:43:33;;;;;;;;;;;;;;;18.43;63.13;98038.63;2078288;28;19932;-49
2023/05/15 03:44:34;;;;;;;;;;;;;;;18.43;63.18;98045.88;2076608;28;19920;-46
2023/05/15 03:45:35;;;;;;;;;;;;;;;18.42;63.11;98042.38;2077943;28;20016;-46
2023/05/15 03:46:36;;;;;;;;;;;;;;;18.42;63.05;98045.06;2075830;28;19920;-44
2023/05/15 03:47:38;;;;;;;;;;;;;;;18.40;63.05;98049.81;2077512;28;19924;-46
2023/05/15 03:48:40;;;;;;;;;;;;;;;18.41;63.12;98053.31;2077192;28;20333;-46
2023/05/15 03:49:40;;;;;;;;;;;;;;;18.41;63.20;98056.81;2076764;28;19925;-44
2023/05/15 03:50:43;;;;;;;;;;;;;;;18.42;62.93;98063.84;2077456;28;19986;-47
2023/05/15 03:51:44;;;;;;;;;;;;;;;18.40;63.20;98052.50;2077682;28;19925;-46
2023/05/15 03:52:45;;;;;;;;;;;;;;;18.40;63.01;98060.53;2078662;28;19995;-48
2023/05/15 03:53:46;;;;;;;;;;;;;;;18.41;63.01;98056.00;2075659;28;19928;-49
2023/05/15 03:54:47;;;;;;;;;;;;;;;18.41;63.00;98042.56;2079091;28;20432;-47
2023/05/15 03:55:48;;;;;;;;;;;;;;;18.40;63.17;98049.81;2076537;28;19924;-46
2023/05/15 03:56:49;;;;;;;;;;;;;;;18.41;63.11;98043.38;2077076;28;20406;-44
2023/05/15 03:57:50;;;;;;;;;;;;;;;18.39;63.24;98037.44;2077891;28;20983;-44
2023/05/15 03:58:51;;;;;;;;;;;;;;;18.40;63.15;98041.75;2077231;28;19932;-44
2023/05/15 03:59:52;;;;;;;;;;;;;;;18.41;63.05;98045.25;2075984;28;19967;-48
2023/05/15 04:00:53;;;;;;;;;;;;;;;18.41;63.01;98039.88;2077054;28;19921;-46
2023/05/15 04:01:54;;;;;;;;;;;;;;;18.39;63.17;98042.81;2077279;28;19936;-48
2023/05/15 04:02:56;;;;;;;;;;;;;;;18.40;62.86;98039.06;2078312;28;19973;-45
2023/05/15 04:03:57;;;;;;;;;;;;;;;18.41;62.98;98034.50;2077377;28;20027;-51
2023/05/15 04:04:58;;;;;;;;;;;;;;;18.42;63.15;98037.00;2077486;28;19987;-46
2023/05/15 04:05:59;;;;;;;;;;;;;;;18.41;63.17;98035.31;2076201;28;19924;-45
2023/05/15 04:07:00;;;;;;;;;;;;;;;18.42;63.06;98030.81;2077343;28;20010;-48
2023/05/15 04:08:01;;;;;;;;;;;;;;;18.41;63.22;98029.97;2076002;28;19929;-46
2023/05/15 04:09:02;;;;;;;;;;;;;;;18.41;63.11;98029.97;2077492;28;19975;-47
2023/05/15 04:10:03;;;;;;;;;;;;;;;18.41;62.93;98029.97;2074474;28;20398;-46
2023/05/15 04:11:04;;;;;;;;;;;;;;;18.41;62.89;98034.50;2074869;28;19925;-47
2023/05/15 04:12:05;;;;;;;;;;;;;;;18.40;62.91;98036.38;2077790;28;19986;-45
2023/05/15 04:13:06;;;;;;;;;;;;;;;18.39;62.90;98036.63;2077912;28;19983;-50
2023/05/15 04:14:07;;;;;;;;;;;;;;;18.40;63.06;98032.88;2077709;28;19929;-47
2023/05/15 04:15:15;;;;;;;;;;;;;;;18.40;63.28;98032.88;2077374;28;19975;-46
2023/05/15 04:16:15;;;;;;;;;;;;;;;18.39;63.08;98028.56;2078931;28;19929;-47
2023/05/15 04:17:17;;;;;;;;;;;;;;;18.37;63.04;98034.13;2078397;28;20007;-48
2023/05/15 04:18:19;;;;;;;;;;;;;;;18.37;63.18;98028.75;2077005;28;19929;-44
2023/05/15 04:19:20;;;;;;;;;;;;;;;18.39;63.18;98033.94;2077949;28;19964;-46
2023/05/15 04:20:22;;;;;;;;;;;;;;;18.37;63.18;98028.75;2078508;28;19979;-46
2023/05/15 04:21:23;;;;;;;;;;;;;;;18.39;63.32;98029.38;2077446;28;19929;-45
2023/05/15 04:22:24;;;;;;;;;;;;;;;18.38;63.06;98016.97;2078715;28;19929;-46
2023/05/15 04:23:25;;;;;;;;;;;;;;;18.38;63.18;98016.97;2079215;28;20343;-48
2023/05/15 04:24:26;;;;;;;;;;;;;;;18.38;62.90;98008.09;2076723;28;20624;-45
2023/05/15 04:25:27;;;;;;;;;;;;;;;18.39;62.92;98007.09;2076539;28;19925;-46
2023/05/15 04:26:28;;;;;;;;;;;;;;;18.36;63.15;98011.03;2076340;28;20540;-46
2023/05/15 04:27:29;;;;;;;;;;;;;;;18.39;63.18;98017.81;2076584;28;19983;-46
2023/05/15 04:28:31;;;;;;;;;;;;;;;18.39;62.96;98020.50;2076921;28;20350;-48
2023/05/15 04:29:32;;;;;;;;;;;;;;;18.38;63.08;98008.91;2077085;28;19921;-46
2023/05/15 04:30:33;;;;;;;;;;;;;;;18.39;63.13;98013.25;2079198;28;19921;-46
2023/05/15 04:31:35;;;;;;;;;;;;;;;18.39;63.12;98020.50;2076192;28;20452;-45
2023/05/15 04:32:36;;;;;;;;;;;;;;;18.38;63.09;98013.47;2078876;28;19925;-48
2023/05/15 04:33:39;;;;;;;;;;;;;;;18.37;63.08;98012.66;2075868;28;19951;-48
2023/05/15 04:34:39;;;;;;;;;;;;;;;18.37;62.98;98017.22;2076488;28;19927;-46
2023/05/15 04:35:41;;;;;;;;;;;;;;;18.38;63.18;98018.84;2076907;28;19974;-45
2023/05/15 04:36:42;;;;;;;;;;;;;;;18.38;63.10;98025.03;2077170;28;19925;-49
2023/05/15 04:37:45;;;;;;;;;;;;;;;18.38;63.03;98016.97;2076897;28;19924;-47
2023/05/15 04:38:46;;;;;;;;;;;;;;;18.39;63.03;98020.50;2076038;28;19997;-47
2023/05/15 04:39:47;;;;;;;;;;;;;;;18.38;62.95;98022.34;2078068;28;19955;-44
2023/05/15 04:40:48;;;;;;;;;;;;;;;18.38;63.07;98024.22;2077245;28;19924;-44
2023/05/15 04:41:49;;;;;;;;;;;;;;;18.37;63.11;98026.06;2077360;28;19987;-47
2023/05/15 04:42:50;;;;;;;;;;;;;;;18.35;62.94;98020.09;2077255;28;19921;-48
2023/05/15 04:43:51;;;;;;;;;;;;;;;18.36;63.14;98019.06;2075138;28;19960;-44
2023/05/15 04:44:52;;;;;;;;;;;;;;;18.36;63.02;98020.91;2076823;28;19929;-47
2023/05/15 04:45:53;;;;;;;;;;;;;;;18.36;63.16;98010.16;2077625;28;19925;-46
2023/05/15 04:46:54;;;;;;;;;;;;;;;18.37;63.16;98015.34;2077513;28;19929;-49
2023/05/15 04:47:55;;;;;;;;;;;;;;;18.38;62.98;98018.84;2076757;28;19921;-46
2023/05/15 04:48:57;;;;;;;;;;;;;;;18.36;62.92;98005.66;2076701;28;21507;-48
2023/05/15 04:49:58;;;;;;;;;;;;;;;18.34;63.08;98007.72;2075630;28;19970;-49
2023/05/15 04:50:59;;;;;;;;;;;;;;;18.35;63.10;98009.34;2076386;28;19925;-48
2023/05/15 04:52:00;;;;;;;;;;;;;;;18.34;63.05;97999.66;2078140;28;19925;-46
2023/05/15 04:53:01;;;;;;;;;;;;;;;18.33;62.96;98003.41;2077345;28;19982;-44
2023/05/15 04:54:02;;;;;;;;;;;;;;;18.34;63.08;98006.91;2075073;28;19928;-46
2023/05/15 04:55:03;;;;;;;;;;;;;;;18.33;63.04;98007.94;2077915;28;19928;-44
2023/05/15 04:56:05;;;;;;;;;;;;;;;18.34;63.26;98004.22;2074825;28;20438;-50
2023/05/15 04:57:05;;;;;;;;;;;;;;;18.34;63.19;98005.03;2076489;28;19982;-45
2023/05/15 04:58:07;;;;;;;;;;;;;;;18.34;63.05;98001.53;2076164;28;19929;-47
2023/05/15 04:59:08;;;;;;;;;;;;;;;18.34;63.17;98002.34;2076192;28;20374;-47
2023/05/15 05:00:11;;;;;;;;;;;;;;;18.33;63.17;98000.72;2075738;28;19975;-50
2023/05/15 05:01:11;;;;;;;;;;;;;;;18.33;63.20;97998.03;2077018;28;19943;-45
2023/05/15 05:02:13;;;;;;;;;;;;;;;18.34;62.93;98006.91;2077290;28;19952;-47
2023/05/15 05:03:13;;;;;;;;;;;;;;;18.35;63.10;98001.31;2076898;28;20405;-44
2023/05/15 05:04:18;;;;;;;;;;;;;;;18.34;63.09;98005.03;2074988;28;20618;-45
2023/05/15 05:05:19;;;;;;;;;;;;;;;18.35;63.09;98001.31;2076320;28;19921;-49
2023/05/15 05:06:20;;;;;;;;;;;;;;;18.35;63.11;98001.31;2076281;28;20306;-46
2023/05/15 05:07:21;;;;;;;;;;;;;;;18.34;63.09;98009.59;2076107;28;20379;-47
2023/05/15 05:08:23;;;;;;;;;;;;;;;18.34;63.00;98005.03;2077277;28;19924;-46
2023/05/15 05:09:23;;;;;;;;;;;;;;;18.33;63.14;98010.59;2076339;28;19920;-47
2023/05/15 05:10:25;;;;;;;;;;;;;;;18.34;62.91;98012.28;2075617;28;20864;-46
2023/05/15 05:11:25;;;;;;;;;;;;;;;18.34;63.06;98017.63;2075426;28;19970;-44
2023/05/15 05:12:26;;;;;;;;;;;;;;;18.33;63.00;98010.59;2076936;28;19932;-49
2023/05/15 05:13:27;;;;;;;;;;;;;;;18.32;63.05;98004.41;2076358;28;20346;-47
2023/05/15 05:14:28;;;;;;;;;;;;;;;18.35;62.96;98003.16;2075747;28;19954;-48
2023/05/15 05:15:29;;;;;;;;;;;;;;;18.35;63.07;98014.72;2076163;28;19987;-46
2023/05/15 05:16:30;;;;;;;;;;;;;;;18.34;63.07;98018.47;2076466;28;20485;-49
2023/05/15 05:17:31;;;;;;;;;;;;;;;18.32;62.95;98015.16;2076420;28;20503;-47
2023/05/15 05:18:32;;;;;;;;;;;;;;;18.33;63.21;98022.19;2075740;28;19929;-47
2023/05/15 05:19:34;;;;;;;;;;;;;;;18.34;62.75;98020.31;2076259;28;19925;-45
2023/05/15 05:20:36;;;;;;;;;;;;;;;18.34;63.09;98017.63;2076432;28;20046;-47
2023/05/15 05:21:36;;;;;;;;;;;;;;;18.33;63.03;98016.81;2077046;28;19925;-44
2023/05/15 05:22:38;;;;;;;;;;;;;;;18.33;63.10;98021.34;2075853;28;20891;-47